Mild Tempo — VROE5 — position and weather

sailwx.info

Track history (hours):
 
Tides and Currents Weather Stations Pressure Air Temp Water Temp Dewpoint Dewpoint Depression Visibility Wind Speed Wind Dir Waves Ship Positions

Mild Tempo

Last reported at 2017-Nov-15 22:19 UTC. Time now 2017-Nov-18 04:31 UTC.
Position N 34°52' E 139°21'.

Length 148 m; draft 7.2 m.

Type: Ship (hazmat cat A). MMSI: 477006600.

Date/timePositionNaut miles runAvg speedWind from/ knotsBaromVisibWave heightAir tempDewpointWater temp
2017-Nov-15 22:19N 34°52' E 139°21'818.6
2017-Nov-15 21:53N 34°57' E 139°28'718.5
2017-Nov-15 21:30N 35°01' E 139°35'918.3
2017-Nov-15 21:00N 35°07' E 139°43'715.0
2017-Nov-15 20:30N 35°14' E 139°46'612.7
2017-Nov-15 20:00N 35°20' E 139°43'612.9
2017-Nov-15 19:30N 35°26' E 139°42'1 1.9
2017-Nov-15 18:58N 35°26' E 139°41'0 0.0
2017-Nov-15 18:28N 35°26' E 139°41'0 0.0
2017-Nov-15 17:58N 35°26' E 139°41'0 0.0
2017-Nov-15 17:28N 35°26' E 139°41'0 0.0
2017-Nov-15 16:58N 35°26' E 139°41'0 0.0
2017-Nov-15 16:28N 35°26' E 139°41'0 0.0
2017-Nov-15 15:58N 35°26' E 139°41'0 0.0
2017-Nov-15 15:28N 35°26' E 139°41'0 0.0
2017-Nov-15 14:58N 35°26' E 139°41'0 0.0
2017-Nov-15 14:28N 35°26' E 139°41'0 0.0
2017-Nov-15 13:58N 35°26' E 139°41'0 0.0
2017-Nov-15 13:28N 35°26' E 139°41'0 0.0
2017-Nov-15 12:58N 35°26' E 139°41'0 0.0
2017-Nov-15 12:28N 35°26' E 139°41'0 0.4
2017-Nov-15 12:01N 35°26' E 139°41'3 5.1
2017-Nov-15 11:30N 35°26' E 139°44'611.5
2017-Nov-15 11:01N 35°29' E 139°50'510.8
2017-Nov-15 10:30N 35°34' E 139°49'2 4.4
2017-Nov-15 09:59N 35°36' E 139°47'0 0.0
2017-Nov-15 09:08N 35°36' E 139°47'0 0.0
2017-Nov-15 08:59N 35°36' E 139°47'0 0.0
2017-Nov-15 08:29N 35°36' E 139°47'0 0.0
2017-Nov-15 07:59N 35°36' E 139°47'0 0.0
2017-Nov-15 06:59N 35°36' E 139°47'0 0.0
2017-Nov-15 06:29N 35°36' E 139°47'0 0.0
2017-Nov-15 05:59N 35°36' E 139°47'0 0.0
2017-Nov-15 05:29N 35°36' E 139°47'0 0.0
2017-Nov-15 04:56N 35°36' E 139°47'0 0.0
2017-Nov-15 04:23N 35°36' E 139°47'0 0.0
2017-Nov-15 03:53N 35°36' E 139°47'0 0.0
2017-Nov-15 03:23N 35°36' E 139°47'0 0.0
2017-Nov-15 00:32N 35°36' E 139°47'0 0.0
2017-Nov-15 00:29N 35°36' E 139°47'0 0.0
2017-Nov-14 23:50N 35°36' E 139°47'0 0.0
2017-Nov-14 23:26N 35°36' E 139°47'0 0.0
2017-Nov-14 22:50N 35°36' E 139°47'0 0.1
2017-Nov-14 22:30N 35°36' E 139°47'2 4.6
2017-Nov-14 22:00N 35°34' E 139°49'5 9.7
2017-Nov-14 21:30N 35°30' E 139°52'612.3
2017-Nov-14 21:00N 35°25' E 139°48'612.5
2017-Nov-14 20:30N 35°20' E 139°44'510.8
2017-Nov-14 20:00N 35°15' E 139°47'713.0
2017-Nov-14 19:30N 35°09' E 139°46'714.7
2017-Nov-14 19:00N 35°03' E 139°40'816.3
2017-Nov-14 18:30N 34°58' E 139°32'917.5
2017-Nov-14 18:00N 34°53' E 139°24'  
2017-Nov-08 21:28N 35°03' E 139°37'818.2
2017-Nov-08 21:00N 35°09' E 139°45'713.7
2017-Nov-08 20:30N 35°15' E 139°46'612.4
2017-Nov-08 20:00N 35°21' E 139°42'713.7
2017-Nov-08 19:30N 35°27' E 139°47'714.0
2017-Nov-08 19:01N 35°33' E 139°51'4 8.3
2017-Nov-08 18:30N 35°36' E 139°47'0 0.1
2017-Nov-08 17:59N 35°36' E 139°47'0 0.0
2017-Nov-08 17:29N 35°36' E 139°47'0 0.0
2017-Nov-08 16:56N 35°36' E 139°47'0 0.0
2017-Nov-08 16:29N 35°36' E 139°47'0 0.0
2017-Nov-08 15:59N 35°36' E 139°47'0 0.0
2017-Nov-08 15:29N 35°36' E 139°47'0 0.0
2017-Nov-08 14:59N 35°36' E 139°47'0 0.0
2017-Nov-08 14:29N 35°36' E 139°47'0 0.0
2017-Nov-08 13:59N 35°36' E 139°47'0 0.0
2017-Nov-08 13:29N 35°36' E 139°47'0 0.0
2017-Nov-08 12:59N 35°36' E 139°47'0 0.0
2017-Nov-08 12:29N 35°36' E 139°47'0 0.0
2017-Nov-08 11:59N 35°36' E 139°47'0 0.0
2017-Nov-08 11:29N 35°36' E 139°47'0 0.0
2017-Nov-08 10:59N 35°36' E 139°47'0 0.0
2017-Nov-08 10:17N 35°36' E 139°47'0 0.0
2017-Nov-08 09:59N 35°36' E 139°47'0 0.0
2017-Nov-08 09:29N 35°36' E 139°47'0 0.1
2017-Nov-08 09:00N 35°36' E 139°47'3 6.1
2017-Nov-08 08:30N 35°34' E 139°50'5 9.4
2017-Nov-08 07:58N 35°29' E 139°52'714.2
2017-Nov-08 07:30N 35°26' E 139°44'3 5.8
2017-Nov-08 07:00N 35°26' E 139°41'0 0.0
2017-Nov-08 06:30N 35°26' E 139°41'0 0.0
2017-Nov-08 06:00N 35°26' E 139°41'0 0.0
2017-Nov-08 05:30N 35°26' E 139°41'0 0.0
2017-Nov-08 04:57N 35°26' E 139°41'0 0.0
2017-Nov-08 04:30N 35°26' E 139°41'0 0.0
2017-Nov-08 04:00N 35°26' E 139°41'0 0.0
2017-Nov-08 03:30N 35°26' E 139°41'0 0.0
2017-Nov-08 03:00N 35°26' E 139°41'1 1.1
2017-Nov-08 02:31N 35°27' E 139°41'3 6.8
2017-Nov-08 02:00N 35°24' E 139°43'510.5
2017-Nov-08 01:30N 35°19' E 139°44'510.9
2017-Nov-08 01:00N 35°14' E 139°47'4 8.8
2017-Nov-08 00:30N 35°09' E 139°46'4 8.6
2017-Nov-07 23:59N 35°05' E 139°44'5 9.0
2017-Nov-07 23:29N 35°02' E 139°41'  
Track history (hours):
 
Tides and Currents Weather Stations Pressure Air Temp Water Temp Dewpoint Dewpoint Depression Visibility Wind Speed Wind Dir Waves Ship Positions

Mild Tempo

Last reported at 2017-Nov-15 22:19 UTC. Time now 2017-Nov-18 04:31 UTC.
Position N 34°52' E 139°21'.

Length 148 m; draft 7.2 m.

Type: Ship (hazmat cat A). MMSI: 477006600.

Date/timePositionNaut miles runAvg speedWind from/ knotsBaromVisibWave heightAir tempDewpointWater temp
2017-Nov-15 22:19N 34°52' E 139°21'818.6
2017-Nov-15 21:53N 34°57' E 139°28'718.5
2017-Nov-15 21:30N 35°01' E 139°35'918.3
2017-Nov-15 21:00N 35°07' E 139°43'715.0
2017-Nov-15 20:30N 35°14' E 139°46'612.7
2017-Nov-15 20:00N 35°20' E 139°43'612.9
2017-Nov-15 19:30N 35°26' E 139°42'1 1.9
2017-Nov-15 18:58N 35°26' E 139°41'0 0.0
2017-Nov-15 18:28N 35°26' E 139°41'0 0.0
2017-Nov-15 17:58N 35°26' E 139°41'0 0.0
2017-Nov-15 17:28N 35°26' E 139°41'0 0.0
2017-Nov-15 16:58N 35°26' E 139°41'0 0.0
2017-Nov-15 16:28N 35°26' E 139°41'0 0.0
2017-Nov-15 15:58N 35°26' E 139°41'0 0.0
2017-Nov-15 15:28N 35°26' E 139°41'0 0.0
2017-Nov-15 14:58N 35°26' E 139°41'0 0.0
2017-Nov-15 14:28N 35°26' E 139°41'0 0.0
2017-Nov-15 13:58N 35°26' E 139°41'0 0.0
2017-Nov-15 13:28N 35°26' E 139°41'0 0.0
2017-Nov-15 12:58N 35°26' E 139°41'0 0.0
2017-Nov-15 12:28N 35°26' E 139°41'0 0.4
2017-Nov-15 12:01N 35°26' E 139°41'3 5.1
2017-Nov-15 11:30N 35°26' E 139°44'611.5
2017-Nov-15 11:01N 35°29' E 139°50'510.8
2017-Nov-15 10:30N 35°34' E 139°49'2 4.4
2017-Nov-15 09:59N 35°36' E 139°47'0 0.0
2017-Nov-15 09:08N 35°36' E 139°47'0 0.0
2017-Nov-15 08:59N 35°36' E 139°47'0 0.0
2017-Nov-15 08:29N 35°36' E 139°47'0 0.0
2017-Nov-15 07:59N 35°36' E 139°47'0 0.0
2017-Nov-15 06:59N 35°36' E 139°47'0 0.0
2017-Nov-15 06:29N 35°36' E 139°47'0 0.0
2017-Nov-15 05:59N 35°36' E 139°47'0 0.0
2017-Nov-15 05:29N 35°36' E 139°47'0 0.0
2017-Nov-15 04:56N 35°36' E 139°47'0 0.0
2017-Nov-15 04:23N 35°36' E 139°47'0 0.0
2017-Nov-15 03:53N 35°36' E 139°47'0 0.0
2017-Nov-15 03:23N 35°36' E 139°47'0 0.0
2017-Nov-15 00:32N 35°36' E 139°47'0 0.0
2017-Nov-15 00:29N 35°36' E 139°47'0 0.0
2017-Nov-14 23:50N 35°36' E 139°47'0 0.0
2017-Nov-14 23:26N 35°36' E 139°47'0 0.0
2017-Nov-14 22:50N 35°36' E 139°47'0 0.1
2017-Nov-14 22:30N 35°36' E 139°47'2 4.6
2017-Nov-14 22:00N 35°34' E 139°49'5 9.7
2017-Nov-14 21:30N 35°30' E 139°52'612.3
2017-Nov-14 21:00N 35°25' E 139°48'612.5
2017-Nov-14 20:30N 35°20' E 139°44'510.8
2017-Nov-14 20:00N 35°15' E 139°47'713.0
2017-Nov-14 19:30N 35°09' E 139°46'714.7
2017-Nov-14 19:00N 35°03' E 139°40'816.3
2017-Nov-14 18:30N 34°58' E 139°32'917.5
2017-Nov-14 18:00N 34°53' E 139°24'  
2017-Nov-08 21:28N 35°03' E 139°37'818.2
2017-Nov-08 21:00N 35°09' E 139°45'713.7
2017-Nov-08 20:30N 35°15' E 139°46'612.4
2017-Nov-08 20:00N 35°21' E 139°42'713.7
2017-Nov-08 19:30N 35°27' E 139°47'714.0
2017-Nov-08 19:01N 35°33' E 139°51'4 8.3
2017-Nov-08 18:30N 35°36' E 139°47'0 0.1
2017-Nov-08 17:59N 35°36' E 139°47'0 0.0
2017-Nov-08 17:29N 35°36' E 139°47'0 0.0
2017-Nov-08 16:56N 35°36' E 139°47'0 0.0
2017-Nov-08 16:29N 35°36' E 139°47'0 0.0
2017-Nov-08 15:59N 35°36' E 139°47'0 0.0
2017-Nov-08 15:29N 35°36' E 139°47'0 0.0
2017-Nov-08 14:59N 35°36' E 139°47'0 0.0
2017-Nov-08 14:29N 35°36' E 139°47'0 0.0
2017-Nov-08 13:59N 35°36' E 139°47'0 0.0
2017-Nov-08 13:29N 35°36' E 139°47'0 0.0
2017-Nov-08 12:59N 35°36' E 139°47'0 0.0
2017-Nov-08 12:29N 35°36' E 139°47'0 0.0
2017-Nov-08 11:59N 35°36' E 139°47'0 0.0
2017-Nov-08 11:29N 35°36' E 139°47'0 0.0
2017-Nov-08 10:59N 35°36' E 139°47'0 0.0
2017-Nov-08 10:17N 35°36' E 139°47'0 0.0
2017-Nov-08 09:59N 35°36' E 139°47'0 0.0
2017-Nov-08 09:29N 35°36' E 139°47'0 0.1
2017-Nov-08 09:00N 35°36' E 139°47'3 6.1
2017-Nov-08 08:30N 35°34' E 139°50'5 9.4
2017-Nov-08 07:58N 35°29' E 139°52'714.2
2017-Nov-08 07:30N 35°26' E 139°44'3 5.8
2017-Nov-08 07:00N 35°26' E 139°41'0 0.0
2017-Nov-08 06:30N 35°26' E 139°41'0 0.0
2017-Nov-08 06:00N 35°26' E 139°41'0 0.0
2017-Nov-08 05:30N 35°26' E 139°41'0 0.0
2017-Nov-08 04:57N 35°26' E 139°41'0 0.0
2017-Nov-08 04:30N 35°26' E 139°41'0 0.0
2017-Nov-08 04:00N 35°26' E 139°41'0 0.0
2017-Nov-08 03:30N 35°26' E 139°41'0 0.0
2017-Nov-08 03:00N 35°26' E 139°41'1 1.1
2017-Nov-08 02:31N 35°27' E 139°41'3 6.8
2017-Nov-08 02:00N 35°24' E 139°43'510.5
2017-Nov-08 01:30N 35°19' E 139°44'510.9
2017-Nov-08 01:00N 35°14' E 139°47'4 8.8
2017-Nov-08 00:30N 35°09' E 139°46'4 8.6
2017-Nov-07 23:59N 35°05' E 139°44'5 9.0
2017-Nov-07 23:29N 35°02' E 139°41'  

Dump ship's entire track history